Time;durP1;ratioP1;P1;durP2;ratioP2;P2;SDS_P1;SDS_P2;PMS_P1;PMS_P2;Temp;Humidity;BMP_temperature;BMP_pressure;BME280_temperature;BME280_humidity;BME280_pressure;Samples;Min_cycle;Max_cycle;Signal;HPM_P1;HPM_P2
2022/06/02 00:02:49;;;;;;;2.78;1.02;;;;;;;8.48;88.32;98557.66;5049936;28;20071;-69
2022/06/02 00:05:50;;;;;;;1.02;0.93;;;;;;;8.20;90.45;98559.66;5058719;28;20055;-69
2022/06/02 00:08:44;;;;;;;2.58;1.55;;;;;;;8.08;92.04;98567.69;5070033;28;20059;-69
2022/06/02 00:11:29;;;;;;;6.72;1.23;;;;;;;7.93;91.41;98570.47;5070261;28;20052;-69
2022/06/02 00:14:15;;;;;;;6.88;1.52;;;;;;;8.01;91.47;98576.47;5070212;28;20021;-69
2022/06/02 00:16:40;;;;;;;1.67;0.90;;;;;;;8.05;90.66;98583.44;5070008;28;20022;-69
2022/06/02 00:19:37;;;;;;;2.50;1.35;;;;;;;7.93;90.06;98575.69;5069931;28;20220;-69
2022/06/02 00:22:20;;;;;;;1.55;1.20;;;;;;;7.70;92.45;98582.03;5068648;28;20100;-69
2022/06/02 00:24:57;;;;;;;4.35;1.35;;;;;;;7.78;94.14;98593.34;5057366;28;20096;-69
2022/06/02 00:27:46;;;;;;;1.35;1.05;;;;;;;7.90;92.69;98594.06;5046768;28;20025;-69
2022/06/02 00:30:24;;;;;;;1.63;1.25;;;;;;;7.77;90.93;98595.06;5058030;28;20048;-69
2022/06/02 00:33:07;;;;;;;2.42;1.00;;;;;;;7.85;90.75;98606.34;5066090;28;20127;-69
2022/06/02 00:35:40;;;;;;;2.20;1.13;;;;;;;7.80;90.96;98605.53;5066000;28;20086;-69
2022/06/02 00:38:18;;;;;;;1.33;1.00;;;;;;;7.76;90.69;98603.81;5065279;28;20371;-69
2022/06/02 00:40:44;;;;;;;5.70;1.10;;;;;;;7.80;91.28;98607.25;5046779;28;20213;-69
2022/06/02 00:43:34;;;;;;;1.38;1.27;;;;;;;7.96;91.20;98604.50;5054670;28;20072;-69
2022/06/02 00:46:28;;;;;;;3.30;1.20;;;;;;;7.94;91.17;98610.66;5065869;28;20025;-69
2022/06/02 00:49:16;;;;;;;1.80;1.50;;;;;;;7.95;89.95;98618.50;5055554;28;20037;-69
2022/06/02 00:52:12;;;;;;;2.08;1.45;;;;;;;7.98;89.74;98618.44;5046326;28;20044;-69
2022/06/02 00:58:05;;;;;;;1.58;1.27;;;;;;;7.78;88.83;98615.13;5046195;28;20072;-69
2022/06/02 01:01:03;;;;;;;1.17;0.90;;;;;;;7.60;89.85;98614.44;5046026;28;20041;-69
2022/06/02 01:03:38;;;;;;;1.90;1.25;;;;;;;7.67;89.50;98606.50;5047535;28;20110;-69
2022/06/02 01:06:10;;;;;;;1.83;1.30;;;;;;;7.54;89.67;98604.88;5057316;28;20049;-69
2022/06/02 01:08:57;;;;;;;3.78;1.55;;;;;;;7.57;90.81;98615.34;5050423;28;20025;-69
2022/06/02 01:12:13;;;;;;;2.72;1.05;;;;;;;7.64;90.16;98608.28;5058691;28;20059;-69
2022/06/02 01:14:51;;;;;;;1.80;1.35;;;;;;;7.58;89.75;98610.94;5041663;28;20041;-69
2022/06/02 01:17:42;;;;;;;1.35;1.10;;;;;;;7.45;90.31;98609.31;5046157;28;20055;-69
2022/06/02 01:20:25;;;;;;;1.35;1.25;;;;;;;7.16;89.71;98604.28;5054368;28;20232;-69
2022/06/02 01:23:16;;;;;;;1.92;1.40;;;;;;;6.98;92.07;98600.88;5050821;28;20018;-69
2022/06/02 01:25:51;;;;;;;5.53;1.20;;;;;;;6.83;94.38;98604.47;5045747;28;20083;-69
2022/06/02 01:28:41;;;;;;;2.63;1.55;;;;;;;6.98;94.55;98612.22;5060282;28;20016;-69
2022/06/02 01:31:13;;;;;;;2.15;1.25;;;;;;;7.07;93.63;98609.56;5064997;28;20033;-69
2022/06/02 01:33:44;;;;;;;;;;;;;;;7.12;92.26;98613.00;5065405;28;20032;-69
2022/06/02 01:36:48;;;;;;;4.53;1.50;;;;;;;6.87;92.26;98614.06;5054703;28;20196;-69
2022/06/02 01:39:51;;;;;;;1.20;1.10;;;;;;;6.94;93.04;98621.00;5063028;28;20032;-69
2022/06/02 01:42:16;;;;;;;3.97;1.48;;;;;;;7.04;92.68;98627.91;5063031;28;20039;-69
2022/06/02 01:45:12;;;;;;;1.85;1.30;;;;;;;6.93;92.61;98624.47;5064794;28;20024;-69
2022/06/02 01:47:42;;;;;;;1.35;1.20;;;;;;;6.97;91.73;98615.75;5062873;28;20039;-69
2022/06/02 01:50:36;;;;;;;1.35;1.20;;;;;;;6.86;90.88;98617.53;5056710;28;20067;-69
2022/06/02 01:53:31;;;;;;;2.35;1.60;;;;;;;6.73;90.52;98621.06;5045343;28;20025;-69
2022/06/02 01:56:09;;;;;;;4.10;1.52;;;;;;;6.70;90.67;98620.25;5053773;28;20303;-69
2022/06/02 01:59:00;;;;;;;2.10;1.40;;;;;;;6.60;90.99;98622.00;5045319;28;20082;-69
2022/06/02 02:01:37;;;;;;;2.00;1.20;;;;;;;6.67;91.88;98631.56;5044982;28;20033;-69
2022/06/02 02:04:20;;;;;;;2.28;1.05;;;;;;;6.69;91.84;98629.81;5049067;28;20250;-69
2022/06/02 02:06:55;;;;;;;1.50;1.10;;;;;;;6.75;92.17;98629.81;5064308;28;20328;-69
2022/06/02 02:09:23;;;;;;;2.63;1.42;;;;;;;6.70;92.04;98626.31;5064538;28;20046;-69
2022/06/02 02:11:56;;;;;;;3.65;1.63;;;;;;;6.57;91.04;98635.09;5064028;28;20305;-69
2022/06/02 02:14:36;;;;;;;1.52;1.23;;;;;;;6.67;92.02;98642.03;5045494;28;20025;-69
2022/06/02 02:17:39;;;;;;;3.72;1.95;;;;;;;6.70;91.98;98638.56;5047063;28;20026;-69
2022/06/02 02:20:24;;;;;;;;;;;;;;;6.67;91.67;98631.56;5061631;28;20024;-69
2022/06/02 02:23:05;;;;;;;1.38;1.08;;;;;;;6.68;92.07;98635.94;5045235;28;19940;-69
2022/06/02 02:25:49;;;;;;;2.45;1.38;;;;;;;6.58;92.03;98636.81;5045287;28;20148;-69
2022/06/02 02:28:25;;;;;;;1.85;1.30;;;;;;;6.51;91.96;98635.09;5052371;28;20090;-69
2022/06/02 02:31:04;;;;;;;2.13;1.35;;;;;;;6.52;91.55;98632.50;5053076;28;20236;-69
2022/06/02 02:34:04;;;;;;;1.73;1.45;;;;;;;6.34;91.25;98634.31;5045165;28;20031;-70
2022/06/02 02:37:05;;;;;;;4.32;1.38;;;;;;;6.40;90.85;98636.91;5045196;28;20229;-70
2022/06/02 02:39:43;;;;;;;1.88;1.30;;;;;;;6.08;90.29;98633.50;5046550;28;20027;-70
2022/06/02 02:42:35;;;;;;;2.72;1.20;;;;;;;6.05;91.62;98636.13;5045223;28;20021;-70
2022/06/02 02:45:26;;;;;;;2.28;1.40;;;;;;;6.08;91.89;98634.34;5046145;28;20254;-69
2022/06/02 02:48:23;;;;;;;1.75;1.42;;;;;;;6.16;91.88;98645.66;5057682;28;20256;-71
2022/06/02 02:51:36;;;;;;;1.70;1.42;;;;;;;6.24;91.07;98650.88;5064332;28;20037;-71
2022/06/02 02:54:26;;;;;;;2.22;1.38;;;;;;;5.94;90.71;98645.69;5024394;28;20321;-70
2022/06/02 02:57:13;;;;;;;3.15;1.50;;;;;;;5.94;91.79;98649.19;5059647;28;20025;-70
2022/06/02 03:00:22;;;;;;;2.03;1.40;;;;;;;6.05;91.54;98647.41;5061218;28;20048;-70
2022/06/02 03:03:06;;;;;;;2.03;1.20;;;;;;;5.76;91.19;98646.53;5063529;28;20025;-70
2022/06/02 03:05:56;;;;;;;1.55;1.35;;;;;;;5.78;92.36;98650.03;5064049;28;20028;-70
2022/06/02 03:08:36;;;;;;;2.10;1.45;;;;;;;5.85;92.22;98645.69;5064003;28;20229;-70
2022/06/02 03:11:22;;;;;;;3.10;1.48;;;;;;;5.87;92.06;98649.19;5063571;28;20412;-70
2022/06/02 03:13:58;;;;;;;2.20;1.45;;;;;;;5.89;92.19;98647.44;5048110;28;20033;-70
2022/06/02 03:16:24;;;;;;;1.20;1.10;;;;;;;5.59;91.15;98644.78;5045706;28;20040;-70
2022/06/02 03:19:07;;;;;;;2.60;1.70;;;;;;;5.48;92.30;98643.94;5044534;28;20027;-70
2022/06/02 03:21:48;;;;;;;2.75;1.60;;;;;;;5.46;92.92;98645.66;5063933;28;20029;-70
2022/06/02 03:24:42;;;;;;;1.38;1.13;;;;;;;5.47;92.60;98650.03;5063919;28;20059;-70
2022/06/02 03:27:19;;;;;;;1.80;1.38;;;;;;;5.58;92.99;98656.13;5057610;28;20201;-70
2022/06/02 03:30:02;;;;;;;1.30;1.20;;;;;;;5.58;92.43;98650.91;5055481;28;20028;-70
2022/06/02 03:32:42;;;;;;;5.72;1.70;;;;;;;5.54;92.09;98643.94;5063369;28;20021;-70
2022/06/02 03:35:24;;;;;;;2.28;1.27;;;;;;;5.51;91.77;98643.94;5044310;28;20034;-70
2022/06/02 03:38:05;;;;;;;2.55;1.70;;;;;;;5.41;92.03;98647.41;5045995;28;20348;-70
2022/06/02 03:40:38;;;;;;;1.80;1.17;;;;;;;5.56;92.37;98648.28;5063621;28;20032;-69
2022/06/02 03:43:29;;;;;;;1.73;1.45;;;;;;;5.52;91.01;98650.88;5044650;28;20109;-70
2022/06/02 03:46:19;;;;;;;2.50;1.70;;;;;;;5.16;91.93;98645.63;5044479;28;20042;-70
2022/06/02 03:48:44;;;;;;;2.17;1.50;;;;;;;5.11;93.51;98655.16;5044026;28;20086;-70
2022/06/02 03:51:37;;;;;;;1.50;1.13;;;;;;;5.36;93.00;98654.34;5045637;28;20038;-70
2022/06/02 03:54:19;;;;;;;2.60;1.50;;;;;;;5.48;93.03;98665.69;5053648;28;20063;-70
2022/06/02 03:57:09;;;;;;;1.63;1.30;;;;;;;5.33;93.10;98659.56;5057851;28;20024;-70
2022/06/02 04:00:10;;;;;;;1.60;1.45;;;;;;;5.42;92.26;98667.41;5065954;28;20024;-70
2022/06/02 04:02:38;;;;;;;2.35;1.60;;;;;;;5.45;91.76;98664.81;5032533;28;20034;-70
2022/06/02 04:05:06;;;;;;;1.92;1.13;;;;;;;5.54;91.90;98654.38;5042220;28;20140;-70
2022/06/02 04:07:44;;;;;;;2.42;1.55;;;;;;;5.64;91.94;98661.34;5044824;28;20340;-70
2022/06/02 04:10:54;;;;;;;2.38;1.60;;;;;;;5.65;92.39;98663.06;5043820;28;20037;-70
2022/06/02 04:13:45;;;;;;;3.08;1.75;;;;;;;5.62;92.64;98668.28;5007658;28;20029;-70
2022/06/02 04:16:35;;;;;;;2.20;1.40;;;;;;;5.53;91.54;98658.72;5024939;28;20036;-70
2022/06/02 04:22:34;;;;;;;3.55;1.50;;;;;;;5.48;93.28;98664.81;5024174;28;20033;-69
2022/06/02 04:25:19;;;;;;;1.50;1.40;;;;;;;5.61;93.58;98666.56;5024254;28;20045;-69
2022/06/02 04:27:55;;;;;;;1.77;1.52;;;;;;;5.58;93.81;98666.56;5023754;28;20092;-69
2022/06/02 04:30:33;;;;;;;2.08;1.73;;;;;;;5.68;93.18;98663.97;5042737;28;20045;-69
2022/06/02 04:33:14;;;;;;;1.45;1.30;;;;;;;6.10;92.83;98678.75;5036087;28;20041;-69
2022/06/02 04:36:07;;;;;;;1.70;1.50;;;;;;;7.40;89.24;98690.50;5031987;28;20325;-69
2022/06/02 04:38:54;;;;;;;1.85;1.40;;;;;;;8.50;83.82;98690.50;5048885;28;20044;-69
2022/06/02 04:41:42;;;;;;;1.40;1.10;;;;;;;9.31;79.93;98690.41;5046544;28;20029;-69
2022/06/02 04:44:27;;;;;;;2.00;1.15;;;;;;;9.75;77.26;98693.28;5046748;28;20052;-69
2022/06/02 04:47:02;;;;;;;2.80;1.70;;;;;;;10.43;75.28;98706.19;5046583;28;20321;-70
2022/06/02 04:50:07;;;;;;;2.08;1.10;;;;;;;11.02;72.97;98708.56;5046740;28;20459;-69
2022/06/02 04:52:42;;;;;;;1.20;1.10;;;;;;;11.54;71.61;98703.94;5046989;28;20043;-70
2022/06/02 04:55:25;;;;;;;2.78;1.20;;;;;;;11.84;69.60;98713.84;5046753;28;20321;-70
2022/06/02 04:58:18;;;;;;;1.10;1.00;;;;;;;12.12;69.25;98714.91;5047055;28;20186;-69
2022/06/02 05:00:48;;;;;;;1.42;1.17;;;;;;;12.27;68.89;98717.19;5046636;28;20025;-70
2022/06/02 05:03:27;;;;;;;1.38;1.05;;;;;;;12.59;68.79;98711.94;5046574;28;20303;-70
2022/06/02 05:06:17;;;;;;;3.42;1.13;;;;;;;12.94;68.63;98711.88;5046285;28;20040;-70
2022/06/02 05:08:58;;;;;;;1.20;1.10;;;;;;;13.19;67.56;98703.31;5046297;28;20032;-70
2022/06/02 05:11:39;;;;;;;1.57;1.07;;;;;;;13.84;66.38;98710.13;5045581;28;20064;-70
2022/06/02 05:14:31;;;;;;;1.85;1.00;;;;;;;14.07;64.58;98712.91;5046102;28;20262;-70
2022/06/02 05:17:36;;;;;;;0.98;0.88;;;;;;;14.25;64.27;98717.66;5045892;28;20025;-70
2022/06/02 05:20:39;;;;;;;1.58;1.00;;;;;;;14.66;64.30;98722.44;5045783;28;20092;-69
2022/06/02 05:23:07;;;;;;;2.08;1.00;;;;;;;14.84;61.34;98720.00;5045672;28;20021;-69
2022/06/02 05:25:54;;;;;;;2.90;1.10;;;;;;;14.99;61.38;98718.59;5045777;28;20032;-69
2022/06/02 05:29:08;;;;;;;1.27;0.95;;;;;;;14.81;63.55;98716.63;5045740;28;20021;-69
2022/06/02 05:32:01;;;;;;;1.42;1.10;;;;;;;15.05;64.04;98726.34;5044869;28;20057;-69
2022/06/02 05:35:01;;;;;;;1.80;1.15;;;;;;;15.62;64.33;98710.09;5045488;28;20025;-69
2022/06/02 05:37:44;;;;;;;2.67;1.23;;;;;;;16.22;62.62;98719.16;5045427;28;20333;-69
2022/06/02 05:40:16;;;;;;;2.92;1.50;;;;;;;16.41;60.66;98716.63;5045672;28;20321;-69
2022/06/02 05:42:59;;;;;;;1.73;1.25;;;;;;;16.47;60.45;98719.94;5045308;28;20028;-69
2022/06/02 05:45:34;;;;;;;1.38;1.27;;;;;;;16.77;61.34;98728.41;5045287;28;20036;-69
2022/06/02 05:48:15;;;;;;;1.60;1.08;;;;;;;17.11;60.68;98734.88;5045262;28;20028;-69
2022/06/02 05:50:58;;;;;;;2.67;1.35;;;;;;;17.78;59.88;98753.16;5045124;28;20280;-69
2022/06/02 05:53:27;;;;;;;6.20;1.48;;;;;;;18.08;58.29;98746.38;5045092;28;20029;-69
2022/06/02 05:56:10;;;;;;;4.70;1.30;;;;;;;18.02;57.92;98744.88;5045166;28;20369;-70
2022/06/02 05:58:57;;;;;;;1.85;1.58;;;;;;;18.09;57.83;98737.44;5045120;28;20040;-70
2022/06/02 06:01:58;;;;;;;3.35;1.80;;;;;;;18.16;59.18;98738.91;5045182;28;20055;-70
2022/06/02 06:04:58;;;;;;;2.37;1.87;;;;;;;17.99;58.26;98728.16;5045101;28;20220;-70
2022/06/02 06:07:51;;;;;;;2.95;1.92;;;;;;;19.26;57.56;98736.88;5044904;28;20033;-70
2022/06/02 06:10:34;;;;;;;3.50;2.53;;;;;;;18.94;56.03;98740.31;5044243;28;20037;-70
2022/06/02 06:13:02;;;;;;;3.53;2.00;;;;;;;19.42;57.76;98748.47;5045471;28;20063;-70
2022/06/02 06:15:49;;;;;;;3.75;2.10;;;;;;;20.30;54.79;98744.50;5046092;28;20036;-70
2022/06/02 06:18:17;;;;;;;3.50;2.15;;;;;;;21.07;53.06;98749.75;5046234;28;20029;-70
2022/06/02 06:21:00;;;;;;;2.65;2.28;;;;;;;21.37;50.31;98756.88;5046373;28;20032;-70
2022/06/02 06:23:32;;;;;;;4.15;2.10;;;;;;;20.84;50.47;98744.88;5045839;28;20097;-70
2022/06/02 06:26:03;;;;;;;4.22;2.40;;;;;;;21.62;51.44;98759.78;5046198;28;20248;-70
2022/06/02 06:28:36;;;;;;;6.15;2.28;;;;;;;21.56;50.05;98753.00;5046500;28;20027;-70
2022/06/02 06:31:01;;;;;;;3.03;2.38;;;;;;;22.27;49.72;98767.28;5046603;28;20025;-70
2022/06/02 06:33:51;;;;;;;2.83;2.22;;;;;;;22.56;48.28;98763.59;5046557;28;20194;-70
2022/06/02 06:36:41;;;;;;;3.20;2.00;;;;;;;22.43;46.15;98754.59;5046188;28;20021;-70
2022/06/02 06:39:15;;;;;;;5.60;2.13;;;;;;;22.80;47.83;98756.59;5046413;28;20033;-70
2022/06/02 06:41:44;;;;;;;2.85;2.03;;;;;;;21.71;47.65;98735.09;5046090;28;20026;-70
2022/06/02 06:44:13;;;;;;;2.70;1.90;;;;;;;22.09;46.31;98741.63;5046006;28;20047;-70
2022/06/02 06:47:00;;;;;;;4.75;1.83;;;;;;;22.76;47.92;98752.41;5046137;28;20221;-70
2022/06/02 06:49:42;;;;;;;3.67;1.65;;;;;;;23.30;44.40;98751.38;5045869;28;20108;-70
2022/06/02 06:52:45;;;;;;;4.68;1.80;;;;;;;23.06;43.22;98747.63;5045913;28;20088;-70
2022/06/02 06:55:30;;;;;;;1.55;1.45;;;;;;;23.50;43.28;98753.53;5045824;28;20190;-70
2022/06/02 06:58:08;;;;;;;3.70;1.70;;;;;;;22.85;42.27;98733.84;5045686;28;20025;-70
2022/06/02 07:01:26;;;;;;;1.60;1.40;;;;;;;23.22;42.40;98737.56;5046000;28;20052;-69
2022/06/02 07:04:03;;;;;;;2.85;1.60;;;;;;;23.02;41.71;98747.00;5045065;28;20060;-69
2022/06/02 07:06:47;;;;;;;2.92;1.23;;;;;;;23.30;41.67;98746.00;5045872;28;20092;-70
2022/06/02 07:09:24;;;;;;;2.53;1.42;;;;;;;23.52;40.57;98746.25;5045478;28;20030;-70
2022/06/02 07:15:19;;;;;;;2.38;1.50;;;;;;;22.77;40.35;98740.69;5045785;28;20098;-70
2022/06/02 07:17:56;;;;;;;1.92;1.60;;;;;;;22.41;40.72;98737.72;5045989;28;20099;-70
2022/06/02 07:20:46;;;;;;;2.33;1.60;;;;;;;21.93;42.20;98741.75;5045484;28;20056;-70
2022/06/02 07:23:37;;;;;;;2.60;1.30;;;;;;;22.32;41.39;98727.59;5045270;28;20032;-70
2022/06/02 07:26:42;;;;;;;2.75;1.23;;;;;;;23.03;41.73;98747.84;5045498;28;20068;-70
2022/06/02 07:29:20;;;;;;;2.22;1.20;;;;;;;22.78;40.89;98753.16;5045390;28;20026;-70
2022/06/02 07:32:23;;;;;;;3.60;1.48;;;;;;;23.26;41.02;98749.88;5045482;28;20221;-70
2022/06/02 07:34:56;;;;;;;4.45;1.50;;;;;;;22.52;42.11;98751.31;5048731;28;20124;-70
2022/06/02 07:37:40;;;;;;;4.88;1.75;;;;;;;22.81;41.30;98752.97;5049105;28;20021;-70
2022/06/02 07:40:09;;;;;;;2.22;1.27;;;;;;;23.07;41.56;98754.75;5048701;28;20210;-70
2022/06/02 07:42:55;;;;;;;1.27;1.15;;;;;;;23.49;40.70;98757.22;5049604;28;20025;-70
2022/06/02 07:45:35;;;;;;;1.95;1.30;;;;;;;23.04;39.11;98749.59;5049882;28;20089;-70
2022/06/02 07:48:22;;;;;;;3.08;1.20;;;;;;;23.98;39.21;98760.88;5049946;28;20025;-70
2022/06/02 07:51:21;;;;;;;2.78;1.40;;;;;;;23.43;40.53;98746.88;5049646;28;20117;-70
2022/06/02 07:54:28;;;;;;;2.55;1.20;;;;;;;22.79;40.22;98754.88;5049550;28;20095;-70
2022/06/02 07:57:07;;;;;;;4.78;1.40;;;;;;;23.09;39.79;98752.81;5049366;28;20344;-70
2022/06/02 07:59:51;;;;;;;4.30;1.52;;;;;;;22.86;40.84;98745.44;5049804;28;20200;-70
2022/06/02 08:02:32;;;;;;;3.10;1.40;;;;;;;22.97;40.34;98740.22;5049426;28;20036;-70
2022/06/02 08:05:10;;;;;;;1.40;1.08;;;;;;;22.89;40.05;98739.88;5049446;28;20025;-70
2022/06/02 08:08:01;;;;;;;2.47;1.00;;;;;;;23.67;39.48;98745.19;5049501;28;20032;-70
2022/06/02 08:10:45;;;;;;;1.98;1.00;;;;;;;24.20;37.80;98742.22;5049425;28;20021;-70
2022/06/02 08:13:41;;;;;;;1.33;1.02;;;;;;;23.26;38.23;98723.03;5049494;28;20116;-70
2022/06/02 08:16:13;;;;;;;1.17;1.05;;;;;;;23.05;38.78;98719.09;5049524;28;20344;-70
2022/06/02 08:19:01;;;;;;;2.10;1.40;;;;;;;24.10;38.39;98727.72;5049675;28;20021;-70
2022/06/02 08:21:40;;;;;;;1.92;1.02;;;;;;;23.93;38.61;98744.19;5049210;28;20025;-70
2022/06/02 08:24:08;;;;;;;1.88;1.23;;;;;;;25.18;38.04;98745.59;5049841;28;20032;-70
2022/06/02 08:26:59;;;;;;;1.77;1.00;;;;;;;24.91;39.35;98748.56;5049123;28;20202;-70
2022/06/02 08:29:46;;;;;;;2.50;1.33;;;;;;;25.35;36.96;98744.34;5048704;28;20048;-70
2022/06/02 08:32:28;;;;;;;1.75;1.02;;;;;;;25.48;35.06;98737.88;5048748;28;20135;-70
2022/06/02 08:35:11;;;;;;;2.95;0.82;;;;;;;25.65;36.36;98747.38;5048936;28;20309;-70
2022/06/02 08:37:52;;;;;;;1.10;0.98;;;;;;;25.88;35.23;98746.41;5047365;28;20028;-70
2022/06/02 08:40:54;;;;;;;1.70;1.10;;;;;;;25.64;34.82;98748.31;5047476;28;20028;-70
2022/06/02 08:43:47;;;;;;;1.98;1.00;;;;;;;23.89;38.38;98749.91;5047584;28;20030;-70
2022/06/02 08:46:41;;;;;;;3.15;1.40;;;;;;;25.39;37.75;98749.38;5048186;28;20035;-70
2022/06/02 08:49:39;;;;;;;1.25;0.95;;;;;;;25.99;35.58;98759.91;5048653;28;20025;-70
2022/06/02 08:52:29;;;;;;;2.20;1.23;;;;;;;25.13;34.91;98759.41;5048194;28;20038;-70
2022/06/02 08:55:20;;;;;;;1.98;1.20;;;;;;;23.83;37.27;98748.50;5048508;28;20036;-70
2022/06/02 08:58:20;;;;;;;3.42;1.05;;;;;;;25.27;36.76;98753.84;5048508;28;20025;-70
2022/06/02 09:01:12;;;;;;;2.05;1.00;;;;;;;24.72;37.75;98742.84;5047593;28;20065;-70
2022/06/02 09:03:55;;;;;;;2.03;0.93;;;;;;;24.92;38.16;98736.81;5047859;28;20198;-70
2022/06/02 09:06:37;;;;;;;2.60;1.00;;;;;;;25.56;36.66;98734.59;5047938;28;20325;-70
2022/06/02 09:09:19;;;;;;;1.25;0.90;;;;;;;24.87;37.73;98730.06;5048521;28;20025;-70
2022/06/02 09:11:55;;;;;;;0.95;0.90;;;;;;;25.08;36.32;98740.06;5048265;28;20092;-70
2022/06/02 09:15:05;;;;;;;1.00;0.90;;;;;;;24.72;39.32;98736.59;5048603;28;20026;-70
2022/06/02 09:17:58;;;;;;;0.80;0.80;;;;;;;25.51;39.33;98744.88;5048191;28;20025;-70
2022/06/02 09:20:42;;;;;;;2.20;1.30;;;;;;;25.75;37.45;98740.28;5048003;28;20091;-70
2022/06/02 09:23:16;;;;;;;2.10;1.05;;;;;;;25.71;36.20;98731.56;5047819;28;20244;-70
2022/06/02 09:26:13;;;;;;;1.67;0.88;;;;;;;25.30;38.44;98734.75;5048309;28;20029;-71
2022/06/02 09:29:15;;;;;;;1.35;0.88;;;;;;;25.01;38.14;98721.78;5047785;28;20055;-71
2022/06/02 09:32:08;;;;;;;4.15;1.10;;;;;;;25.09;39.46;98736.38;5048115;28;20025;-71
2022/06/02 09:34:33;;;;;;;2.63;1.05;;;;;;;24.87;37.72;98730.91;5048241;28;20055;-71
2022/06/02 09:37:44;;;;;;;1.40;0.90;;;;;;;24.51;39.22;98725.56;5048573;28;20029;-71
2022/06/02 09:40:19;;;;;;;2.53;0.93;;;;;;;26.17;36.76;98743.13;5047901;28;20037;-71
2022/06/02 09:42:57;;;;;;;1.05;0.95;;;;;;;25.39;38.11;98724.25;5047911;28;20029;-71
2022/06/02 09:45:44;;;;;;;1.70;0.85;;;;;;;25.60;37.65;98736.06;5048402;28;20032;-71
2022/06/02 09:48:25;;;;;;;1.63;1.08;;;;;;;25.83;36.51;98737.81;5048197;28;20248;-71
2022/06/02 09:51:29;;;;;;;1.70;1.20;;;;;;;25.13;35.74;98731.63;5047642;28;20072;-71
2022/06/02 09:54:29;;;;;;;2.53;1.00;;;;;;;24.39;37.56;98729.16;5046752;28;20037;-71
2022/06/02 09:57:55;;;;;;;1.38;0.90;;;;;;;24.04;37.80;98727.34;5046017;28;20052;-71
2022/06/02 10:00:20;;;;;;;2.45;0.95;;;;;;;25.37;38.18;98728.94;5046887;28;20057;-71
2022/06/02 10:03:10;;;;;;;2.45;1.15;;;;;;;25.34;39.59;98729.16;5046964;28;20115;-71
2022/06/02 10:05:54;;;;;;;2.28;1.13;;;;;;;24.16;37.16;98742.56;5046690;28;20262;-71
2022/06/02 10:08:53;;;;;;;1.00;0.80;;;;;;;24.26;38.79;98732.84;5046652;28;20320;-71
2022/06/02 10:11:46;;;;;;;2.30;1.10;;;;;;;24.85;38.63;98749.03;5045485;28;20198;-71
2022/06/02 10:14:52;;;;;;;1.48;0.85;;;;;;;24.83;37.74;98734.81;5046218;28;20022;-71
2022/06/02 10:17:45;;;;;;;1.50;0.90;;;;;;;24.52;36.75;98734.50;5046659;28;20028;-71
2022/06/02 10:20:18;;;;;;;1.60;1.02;;;;;;;24.43;39.61;98738.72;5047167;28;20025;-71
2022/06/02 10:23:02;;;;;;;2.92;1.00;;;;;;;24.80;38.33;98729.66;5046068;28;20069;-71
2022/06/02 10:26:04;;;;;;;3.40;1.23;;;;;;;24.26;38.02;98716.69;5045810;28;20273;-70
2022/06/02 10:28:35;;;;;;;1.80;1.00;;;;;;;24.47;39.49;98724.06;5047129;28;20018;-70
2022/06/02 10:31:19;;;;;;;1.75;1.00;;;;;;;25.17;38.75;98733.97;5046752;28;20075;-70
2022/06/02 10:34:15;;;;;;;1.17;0.98;;;;;;;25.02;36.59;98729.75;5046432;28;20034;-70
2022/06/02 10:37:23;;;;;;;1.30;0.98;;;;;;;24.90;36.27;98725.28;5046797;28;20100;-70
2022/06/02 10:40:06;;;;;;;1.00;0.90;;;;;;;25.43;38.44;98734.69;5046168;28;20028;-70
2022/06/02 10:42:53;;;;;;;2.47;1.10;;;;;;;25.39;38.33;98732.34;5046244;28;20076;-70
2022/06/02 10:45:37;;;;;;;1.77;1.10;;;;;;;25.91;38.83;98735.38;5046485;28;20228;-70
2022/06/02 10:48:27;;;;;;;2.75;1.60;;;;;;;25.79;38.06;98736.34;5046073;28;20198;-70
2022/06/02 10:51:14;;;;;;;2.28;0.98;;;;;;;25.10;36.15;98727.34;5045704;28;20043;-70
2022/06/02 10:54:17;;;;;;;2.38;1.00;;;;;;;24.90;36.79;98725.28;5045846;28;20027;-70
2022/06/02 10:56:45;;;;;;;1.25;1.00;;;;;;;24.89;36.88;98734.34;5046122;28;20316;-70
2022/06/02 10:59:52;;;;;;;3.00;1.15;;;;;;;23.94;38.10;98727.13;5046801;28;20048;-70
2022/06/02 11:02:46;;;;;;;2.05;0.98;;;;;;;24.74;37.77;98729.28;5046793;28;20045;-70
2022/06/02 11:05:15;;;;;;;3.10;1.00;;;;;;;24.81;37.73;98720.59;5046043;28;20096;-70
2022/06/02 11:07:53;;;;;;;6.38;1.30;;;;;;;24.43;38.19;98717.19;5046236;28;20025;-70
2022/06/02 11:10:30;;;;;;;1.63;1.00;;;;;;;23.84;38.12;98709.91;5046583;28;20032;-70
2022/06/02 11:13:04;;;;;;;1.95;1.13;;;;;;;23.61;38.19;98708.00;5047025;28;20021;-70
2022/06/02 11:15:44;;;;;;;1.70;1.10;;;;;;;23.84;38.05;98699.13;5046529;28;20048;-70
2022/06/02 11:18:31;;;;;;;1.65;0.88;;;;;;;23.71;40.12;98701.00;5046779;28;20055;-70
2022/06/02 11:21:32;;;;;;;1.85;1.17;;;;;;;23.51;38.58;98696.19;5046712;28;20033;-70
2022/06/02 11:24:00;;;;;;;1.25;1.10;;;;;;;23.53;38.38;98693.38;5046429;28;20194;-70
2022/06/02 11:26:25;;;;;;;0.98;0.85;;;;;;;23.63;40.19;98694.44;5046070;28;20368;-70
2022/06/02 11:28:57;;;;;;;2.92;1.40;;;;;;;23.08;39.10;98697.38;5046157;28;20040;-70
2022/06/02 11:31:56;;;;;;;2.53;1.40;;;;;;;23.01;39.45;98688.03;5046999;28;20028;-70
2022/06/02 11:34:43;;;;;;;1.77;1.20;;;;;;;23.35;40.81;98690.16;5047332;28;20028;-70
2022/06/02 11:37:18;;;;;;;2.50;1.13;;;;;;;23.53;39.16;98686.16;5046201;28;20092;-70
2022/06/02 11:40:13;;;;;;;1.58;0.93;;;;;;;23.43;42.06;98698.53;5047231;28;20340;-70
2022/06/02 11:42:48;;;;;;;1.48;1.02;;;;;;;23.46;38.56;98687.56;5046721;28;20022;-70
2022/06/02 11:45:46;;;;;;;1.63;1.13;;;;;;;23.85;39.96;98698.16;5046461;28;20027;-70
2022/06/02 11:48:36;;;;;;;5.15;1.30;;;;;;;23.37;41.53;98680.16;5045093;28;20038;-70
2022/06/02 11:51:42;;;;;;;1.40;1.00;;;;;;;23.12;41.50;98672.03;5046841;28;20064;-70
2022/06/02 11:54:47;;;;;;;1.10;1.00;;;;;;;23.29;42.17;98679.84;5045327;28;20029;-70
2022/06/02 11:57:52;;;;;;;3.50;1.20;;;;;;;22.96;41.16;98684.81;5046990;28;20245;-70
2022/06/02 12:00:24;;;;;;;1.83;1.08;;;;;;;22.99;41.02;98673.84;5046692;28;20025;-70
2022/06/02 12:03:08;;;;;;;;;;;;;;;23.32;41.90;98674.25;5047510;28;20072;-70
2022/06/02 12:06:09;;;;;;;2.92;1.13;;;;;;;23.33;40.54;98664.34;5047549;28;19905;-70
2022/06/02 12:08:49;;;;;;;1.33;1.20;;;;;;;23.10;40.85;98663.25;5047347;28;20084;-70
2022/06/02 12:11:39;;;;;;;1.95;1.17;;;;;;;23.47;41.41;98667.78;5047145;28;20032;-70
2022/06/02 12:14:08;;;;;;;1.27;0.95;;;;;;;23.12;40.66;98669.34;5046595;28;20134;-70
2022/06/02 12:16:36;;;;;;;1.45;1.05;;;;;;;22.78;40.99;98653.88;5047568;28;20292;-70
2022/06/02 12:19:07;;;;;;;2.13;1.25;;;;;;;23.37;42.07;98661.34;5046454;28;20052;-70
2022/06/02 12:21:49;;;;;;;3.67;1.30;;;;;;;23.43;40.35;98657.34;5049594;28;20317;-70
2022/06/02 12:24:29;;;;;;;5.97;1.58;;;;;;;23.23;42.44;98651.56;5049920;28;20267;-70
2022/06/02 12:27:35;;;;;;;1.63;1.20;;;;;;;22.52;41.65;98654.75;5050587;28;20029;-70
2022/06/02 12:30:16;;;;;;;2.45;1.23;;;;;;;22.68;43.64;98655.44;5050482;28;20021;-70
2022/06/02 12:32:50;;;;;;;1.67;1.20;;;;;;;22.58;42.17;98654.34;5050434;28;20076;-70
2022/06/02 12:35:38;;;;;;;1.52;1.30;;;;;;;22.47;43.61;98656.84;5050943;28;20313;-70
2022/06/02 12:38:12;;;;;;;1.63;1.30;;;;;;;22.85;43.75;98658.69;5050688;28;20072;-70
2022/06/02 12:40:55;;;;;;;3.42;1.20;;;;;;;22.88;42.67;98655.78;5050675;28;20132;-70
2022/06/02 12:43:26;;;;;;;1.13;1.02;;;;;;;22.60;43.57;98644.38;5050319;28;20052;-70
2022/06/02 12:46:27;;;;;;;2.58;1.30;;;;;;;22.37;42.00;98645.03;5050395;28;20056;-70
2022/06/02 12:49:30;;;;;;;2.58;1.40;;;;;;;22.58;42.31;98643.59;5050140;28;20033;-70
2022/06/02 12:51:56;;;;;;;5.75;0.90;;;;;;;22.73;42.76;98647.94;5050373;28;20036;-70
2022/06/02 12:54:58;;;;;;;2.38;1.48;;;;;;;22.59;42.86;98651.53;5050750;28;20080;-70
2022/06/02 12:57:33;;;;;;;2.83;1.15;;;;;;;22.60;43.14;98658.66;5049938;28;20037;-70
2022/06/02 13:00:17;;;;;;;2.25;1.50;;;;;;;22.32;44.00;98653.38;5049732;28;20028;-70
2022/06/02 13:03:01;;;;;;;1.40;1.20;;;;;;;22.40;43.64;98658.22;5049619;28;20059;-70
2022/06/02 13:05:48;;;;;;;1.88;1.20;;;;;;;22.18;42.59;98657.94;5049515;28;20052;-70
2022/06/02 13:08:13;;;;;;;1.88;1.40;;;;;;;22.20;44.53;98648.81;5049218;28;20049;-70
2022/06/02 13:10:46;;;;;;;1.98;1.30;;;;;;;22.26;44.41;98652.91;5049691;28;20293;-70
2022/06/02 13:13:35;;;;;;;2.38;1.40;;;;;;;22.10;43.14;98649.50;5049291;28;20024;-70